Terminal Aerodrome Forecast
Issued by NWS Charleston, WV

Current Version | Previous Version | Graphics & Text | Print | Product List | Glossary On
Versions: 1 2 3 4 5 6 7 8 9 10 11 12 13 14 15 16 17 18 19
000
FTUS41 KRLX 281735
TAFBKW
TAF
KBKW 281735Z 2818/2918 26007KT P6SM SCT040
     FM290300 VRB03KT P6SM SCT030
     FM291400 24006KT P6SM SCT050=

USA.gov is the U.S. government's official web portal to all federal, state and local government web resources and services.